Time;durP1;ratioP1;P1;durP2;ratioP2;P2;SDS_P1;SDS_P2;PMS_P1;PMS_P2;Temp;Humidity;BMP_temperature;BMP_pressure;BME280_temperature;BME280_humidity;BME280_pressure;Samples;Min_cycle;Max_cycle;Signal;HPM_P1;HPM_P2
2021/12/20 00:00:10;;;;;;;15.57;9.95;;;;;;;;;;5059163;28;20391;-62
2021/12/20 00:02:38;;;;;;;15.85;10.48;;;;;;;;;;5061385;28;20421;-63
2021/12/20 00:05:03;;;;;;;16.15;10.93;;;;;;;;;;5065164;28;20106;-61
2021/12/20 00:07:29;;;;;;;18.77;11.07;;;;;;;;;;5061924;28;20139;-62
2021/12/20 00:09:54;;;;;;;17.50;10.32;;;;;;;;;;5063441;28;20483;-63
2021/12/20 00:12:20;;;;;;;21.25;10.98;;;;;;;;;;5061728;28;20029;-61
2021/12/20 00:14:45;;;;;;;18.40;10.75;;;;;;;;;;5062615;28;20062;-62
2021/12/20 00:17:10;;;;;;;18.38;9.93;;;;;;;;;;5058785;28;20028;-62
2021/12/20 00:19:36;;;;;;;18.20;10.93;;;;;;;;;;5051909;28;20461;-62
2021/12/20 00:22:01;;;;;;;16.40;10.30;;;;;;;;;;5061233;28;20033;-62
2021/12/20 00:24:27;;;;;;;17.30;11.20;;;;;;;;;;5088246;28;20036;-62
2021/12/20 00:26:52;;;;;;;16.08;11.18;;;;;;;;;;5072635;28;20091;-62
2021/12/20 00:29:18;;;;;;;15.43;11.15;;;;;;;;;;5088491;28;20041;-62
2021/12/20 00:31:43;;;;;;;15.85;9.52;;;;;;;;;;5057384;28;20443;-61
2021/12/20 00:34:12;;;;;;;19.15;11.13;;;;;;;;;;5064579;28;20444;-62
2021/12/20 00:36:42;;;;;;;20.65;10.30;;;;;;;;;;5088115;28;20035;-63
2021/12/20 00:41:54;;;;;;;18.40;11.20;;;;;;;;;;5072618;28;20044;-61
2021/12/20 00:44:20;;;;;;;19.25;10.95;;;;;;;;;;5054538;28;20060;-63
2021/12/20 00:46:45;;;;;;;18.30;10.93;;;;;;;;;;5072483;28;20460;-60
2021/12/20 00:49:17;;;;;;;17.85;11.82;;;;;;;;;;5072351;28;20073;-63
2021/12/20 00:51:45;;;;;;;17.20;11.13;;;;;;;;;;5070969;28;20052;-61
2021/12/20 00:54:14;;;;;;;20.15;12.88;;;;;;;;;;5072567;28;20035;-61
2021/12/20 00:56:39;;;;;;;16.42;11.55;;;;;;;;;;5054536;28;20127;-61
2021/12/20 00:59:08;;;;;;;18.63;11.90;;;;;;;;;;5072362;28;20068;-60
2021/12/20 01:01:33;;;;;;;19.90;12.00;;;;;;;;;;5071098;28;20122;-61
2021/12/20 01:04:02;;;;;;;21.38;12.13;;;;;;;;;;5072003;28;20067;-61
2021/12/20 01:06:30;;;;;;;20.08;11.88;;;;;;;;;;5070509;28;20027;-61
2021/12/20 01:09:17;;;;;;;21.13;12.75;;;;;;;;;;5087918;28;20033;-62
2021/12/20 01:11:52;;;;;;;20.52;12.80;;;;;;;;;;5088343;28;20617;-61
2021/12/20 01:14:23;;;;;;;19.92;13.00;;;;;;;;;;5052089;28;20036;-63
2021/12/20 01:16:49;;;;;;;20.52;12.93;;;;;;;;;;5033356;28;20122;-60
2021/12/20 01:19:15;;;;;;;27.55;14.85;;;;;;;;;;5048908;28;20033;-63
2021/12/20 01:21:40;;;;;;;21.98;13.25;;;;;;;;;;5050993;28;20040;-61
2021/12/20 01:24:06;;;;;;;20.25;13.02;;;;;;;;;;5051910;28;20029;-61
2021/12/20 01:26:31;;;;;;;23.88;13.27;;;;;;;;;;5052079;28;20531;-60
2021/12/20 01:28:56;;;;;;;24.00;14.25;;;;;;;;;;5050597;28;20443;-64
2021/12/20 01:31:22;;;;;;;21.95;13.02;;;;;;;;;;5036958;28;20072;-61
2021/12/20 01:33:47;;;;;;;21.65;13.27;;;;;;;;;;5055403;28;20021;-61
2021/12/20 01:36:13;;;;;;;19.02;12.10;;;;;;;;;;5055698;28;20369;-61
2021/12/20 01:38:38;;;;;;;15.43;10.52;;;;;;;;;;5055458;28;20032;-62
2021/12/20 01:41:04;;;;;;;18.35;11.43;;;;;;;;;;5055243;28;20043;-61
2021/12/20 01:43:29;;;;;;;17.15;10.68;;;;;;;;;;5055180;28;20021;-62
2021/12/20 01:45:55;;;;;;;17.65;10.38;;;;;;;;;;5055109;28;20054;-61
2021/12/20 01:48:22;;;;;;;13.35;8.18;;;;;;;;;;5055424;28;20029;-61
2021/12/20 01:51:11;;;;;;;13.98;8.88;;;;;;;;;;5037383;28;20037;-61
2021/12/20 01:53:34;;;;;;;11.50;7.70;;;;;;;;;;5055154;28;20045;-61
2021/12/20 01:56:00;;;;;;;15.82;8.15;;;;;;;;;;5053809;28;20065;-61
2021/12/20 01:58:27;;;;;;;12.63;7.78;;;;;;;;;;5053683;28;20071;-61
2021/12/20 02:03:39;;;;;;;12.55;7.53;;;;;;;;;;5053782;28;20037;-62
2021/12/20 02:06:09;;;;;;;13.02;8.13;;;;;;;;;;5053700;28;20025;-61
2021/12/20 02:08:34;;;;;;;14.30;7.65;;;;;;;;;;5053716;28;20076;-63
2021/12/20 02:11:10;;;;;;;11.77;7.07;;;;;;;;;;5054927;28;20060;-61
2021/12/20 02:13:36;;;;;;;13.30;8.13;;;;;;;;;;5053800;28;20457;-61
2021/12/20 02:16:02;;;;;;;11.90;7.43;;;;;;;;;;5037043;28;20037;-61
2021/12/20 02:18:28;;;;;;;12.63;8.13;;;;;;;;;;5054716;28;20545;-61
2021/12/20 02:20:54;;;;;;;13.25;8.07;;;;;;;;;;5054636;28;20025;-61
2021/12/20 02:23:21;;;;;;;15.13;8.25;;;;;;;;;;5054456;28;20029;-61
2021/12/20 02:25:47;;;;;;;14.23;7.65;;;;;;;;;;5053761;28;20479;-60
2021/12/20 02:28:14;;;;;;;14.38;7.65;;;;;;;;;;5036764;28;20067;-61
2021/12/20 02:30:52;;;;;;;13.40;8.00;;;;;;;;;;5036705;28;20040;-61
2021/12/20 02:38:48;;;;;;;15.30;7.88;;;;;;;;;;5054516;28;20123;-61
2021/12/20 02:41:19;;;;;;;13.70;7.22;;;;;;;;;;5053814;28;20029;-61
2021/12/20 02:43:53;;;;;;;12.40;7.22;;;;;;;;;;5036476;28;20082;-61
2021/12/20 02:46:29;;;;;;;11.27;6.60;;;;;;;;;;5052954;28;20064;-62
2021/12/20 02:48:55;;;;;;;11.18;6.55;;;;;;;;;;5053186;28;20178;-62
2021/12/20 02:51:23;;;;;;;11.60;6.70;;;;;;;;;;5053153;28;20131;-61
2021/12/20 02:53:50;;;;;;;9.32;5.65;;;;;;;;;;5054596;28;20041;-63
2021/12/20 02:56:15;;;;;;;11.63;6.70;;;;;;;;;;5052975;28;20035;-61
2021/12/20 02:58:40;;;;;;;11.02;6.25;;;;;;;;;;5054118;28;20040;-61
2021/12/20 03:01:06;;;;;;;9.15;5.38;;;;;;;;;;5054024;28;20033;-60
2021/12/20 03:03:31;;;;;;;9.23;4.95;;;;;;;;;;5053014;28;20037;-60
2021/12/20 03:05:57;;;;;;;13.02;5.65;;;;;;;;;;5054058;28;20020;-61
2021/12/20 03:08:23;;;;;;;9.55;6.28;;;;;;;;;;5054029;28;20399;-60
2021/12/20 03:10:48;;;;;;;10.60;6.18;;;;;;;;;;5053850;28;20486;-60
2021/12/20 03:13:14;;;;;;;8.45;5.78;;;;;;;;;;5053902;28;20035;-60
2021/12/20 03:15:39;;;;;;;11.50;6.43;;;;;;;;;;5019886;28;20071;-59
2021/12/20 03:18:05;;;;;;;10.82;6.07;;;;;;;;;;5036123;28;20057;-60
2021/12/20 03:20:30;;;;;;;10.75;5.47;;;;;;;;;;5053742;28;20469;-60
2021/12/20 03:22:56;;;;;;;10.82;6.57;;;;;;;;;;5053588;28;20036;-60
2021/12/20 03:25:21;;;;;;;9.43;5.68;;;;;;;;;;5053646;28;20037;-60
2021/12/20 03:27:46;;;;;;;10.77;6.07;;;;;;;;;;5054078;28;20025;-60
2021/12/20 03:30:13;;;;;;;11.98;5.80;;;;;;;;;;5053561;28;20485;-62
2021/12/20 03:32:38;;;;;;;11.20;6.43;;;;;;;;;;5052261;28;20029;-60
2021/12/20 03:35:04;;;;;;;11.13;5.65;;;;;;;;;;5035678;28;20036;-61
2021/12/20 03:37:30;;;;;;;10.88;4.85;;;;;;;;;;5035670;28;20040;-61
2021/12/20 03:39:56;;;;;;;10.70;4.68;;;;;;;;;;5053467;28;20476;-61
2021/12/20 03:42:22;;;;;;;9.23;5.20;;;;;;;;;;5053500;28;20037;-60
2021/12/20 03:44:47;;;;;;;14.75;5.78;;;;;;;;;;5052021;28;20037;-61
2021/12/20 03:47:13;;;;;;;9.88;4.80;;;;;;;;;;5035368;28;20033;-60
2021/12/20 03:49:39;;;;;;;9.80;5.05;;;;;;;;;;5053318;28;20029;-61
2021/12/20 03:52:04;;;;;;;9.77;5.68;;;;;;;;;;5035540;28;20040;-61
2021/12/20 03:54:30;;;;;;;10.15;5.07;;;;;;;;;;5052026;28;20029;-60
2021/12/20 03:56:55;;;;;;;8.75;4.50;;;;;;;;;;5053201;28;20036;-61
2021/12/20 03:59:21;;;;;;;10.13;5.68;;;;;;;;;;5053245;28;20040;-60
2021/12/20 04:01:46;;;;;;;10.80;6.32;;;;;;;;;;5052058;28;20025;-62
2021/12/20 04:04:12;;;;;;;11.00;5.57;;;;;;;;;;5064504;28;20033;-66
2021/12/20 04:06:37;;;;;;;10.10;6.03;;;;;;;;;;5069155;28;20506;-61
2021/12/20 04:09:03;;;;;;;9.18;5.75;;;;;;;;;;5069209;28;20388;-60
2021/12/20 04:11:29;;;;;;;7.78;4.97;;;;;;;;;;5069278;28;20392;-61
2021/12/20 04:13:56;;;;;;;8.52;5.10;;;;;;;;;;5069165;28;20032;-62
2021/12/20 04:16:22;;;;;;;11.70;5.78;;;;;;;;;;5067567;28;20491;-61
2021/12/20 04:18:47;;;;;;;10.10;6.13;;;;;;;;;;5051041;28;20028;-66
2021/12/20 04:21:13;;;;;;;11.35;6.57;;;;;;;;;;5069571;28;20029;-62
2021/12/20 04:23:38;;;;;;;8.90;5.43;;;;;;;;;;5068919;28;20495;-67
2021/12/20 04:26:04;;;;;;;13.60;6.63;;;;;;;;;;5069017;28;20042;-63
2021/12/20 04:28:29;;;;;;;10.70;6.18;;;;;;;;;;5069095;28;20488;-62
2021/12/20 04:30:55;;;;;;;13.20;6.75;;;;;;;;;;5068496;28;20373;-62
2021/12/20 04:33:20;;;;;;;17.00;6.80;;;;;;;;;;5051040;28;20051;-61
2021/12/20 04:35:46;;;;;;;12.30;5.95;;;;;;;;;;5068784;28;20490;-61
2021/12/20 04:38:12;;;;;;;12.63;6.22;;;;;;;;;;5068588;28;20028;-61
2021/12/20 04:40:38;;;;;;;11.43;6.18;;;;;;;;;;5068470;28;20097;-61
2021/12/20 04:43:04;;;;;;;10.70;6.22;;;;;;;;;;5050552;28;20166;-62
2021/12/20 04:45:29;;;;;;;10.93;5.97;;;;;;;;;;5050426;28;20131;-61
2021/12/20 04:47:55;;;;;;;15.77;6.45;;;;;;;;;;5050610;28;20545;-66
2021/12/20 04:50:21;;;;;;;9.73;4.53;;;;;;;;;;5051340;28;20036;-65
2021/12/20 04:52:47;;;;;;;9.23;5.95;;;;;;;;;;5050408;28;20114;-63
2021/12/20 04:55:13;;;;;;;10.68;5.28;;;;;;;;;;5068344;28;20040;-61
2021/12/20 04:57:39;;;;;;;12.40;5.32;;;;;;;;;;5034138;28;20020;-63
2021/12/20 05:00:07;;;;;;;10.50;6.03;;;;;;;;;;5068464;28;20490;-62
2021/12/20 05:02:32;;;;;;;10.82;4.80;;;;;;;;;;5050830;28;20032;-62
2021/12/20 05:04:58;;;;;;;10.40;5.28;;;;;;;;;;5067592;28;20091;-61
2021/12/20 05:07:26;;;;;;;9.85;5.22;;;;;;;;;;5068784;28;20028;-61
2021/12/20 05:09:57;;;;;;;10.32;4.32;;;;;;;;;;5068758;28;20502;-61
2021/12/20 05:12:22;;;;;;;8.27;4.72;;;;;;;;;;5068379;28;20089;-61
2021/12/20 05:14:47;;;;;;;7.90;4.30;;;;;;;;;;5067904;28;20040;-61
2021/12/20 05:17:13;;;;;;;7.90;4.70;;;;;;;;;;5068500;28;20024;-62
2021/12/20 05:19:40;;;;;;;18.48;5.32;;;;;;;;;;5033562;28;20036;-62
2021/12/20 05:22:05;;;;;;;9.98;4.65;;;;;;;;;;5033806;28;20032;-62
2021/12/20 05:24:31;;;;;;;7.60;4.60;;;;;;;;;;5068248;28;20105;-62
2021/12/20 05:26:57;;;;;;;7.97;4.65;;;;;;;;;;5049855;28;20037;-61
2021/12/20 05:29:24;;;;;;;9.00;4.90;;;;;;;;;;5068137;28;20040;-63
2021/12/20 05:31:50;;;;;;;8.55;4.82;;;;;;;;;;5050117;28;20037;-63
2021/12/20 05:34:15;;;;;;;9.02;4.78;;;;;;;;;;5068135;28;20384;-61
2021/12/20 05:36:40;;;;;;;8.00;4.57;;;;;;;;;;5067155;28;20531;-61
2021/12/20 05:39:06;;;;;;;7.85;4.53;;;;;;;;;;5050141;28;20029;-65
2021/12/20 05:41:31;;;;;;;11.27;4.57;;;;;;;;;;5068071;28;20052;-61
2021/12/20 05:43:57;;;;;;;6.75;3.65;;;;;;;;;;5067774;28;20028;-66
2021/12/20 05:46:22;;;;;;;14.90;9.35;;;;;;;;;;5067891;28;20044;-61
2021/12/20 05:48:48;;;;;;;10.50;5.20;;;;;;;;;;5068024;28;20032;-60
2021/12/20 05:51:13;;;;;;;11.98;5.22;;;;;;;;;;5067998;28;20437;-61
2021/12/20 05:53:39;;;;;;;8.68;5.60;;;;;;;;;;5068407;28;20028;-61
2021/12/20 05:56:04;;;;;;;9.88;5.63;;;;;;;;;;5067736;28;20047;-60
2021/12/20 05:58:29;;;;;;;12.90;5.28;;;;;;;;;;5068245;28;20045;-61
2021/12/20 06:00:55;;;;;;;11.57;5.10;;;;;;;;;;5061576;28;20033;-65
2021/12/20 06:03:21;;;;;;;11.60;5.10;;;;;;;;;;5046040;28;20041;-66
2021/12/20 06:05:46;;;;;;;9.70;4.90;;;;;;;;;;5067799;28;20492;-62
2021/12/20 06:08:12;;;;;;;14.45;5.18;;;;;;;;;;5049325;28;20066;-61
2021/12/20 06:10:38;;;;;;;14.77;5.00;;;;;;;;;;5066919;28;20384;-64
2021/12/20 06:13:03;;;;;;;13.88;5.40;;;;;;;;;;5067130;28;20032;-63
2021/12/20 06:15:29;;;;;;;12.10;4.63;;;;;;;;;;5049150;28;20059;-64
2021/12/20 06:17:54;;;;;;;12.50;5.68;;;;;;;;;;5034872;28;20760;-63
2021/12/20 06:20:20;;;;;;;11.40;5.13;;;;;;;;;;5052446;28;20036;-62
2021/12/20 06:22:45;;;;;;;10.10;5.25;;;;;;;;;;5068977;28;20029;-61
2021/12/20 06:25:11;;;;;;;10.45;5.28;;;;;;;;;;5068741;28;20044;-61
2021/12/20 06:27:37;;;;;;;11.02;5.93;;;;;;;;;;5034450;28;20113;-61
2021/12/20 06:30:04;;;;;;;11.68;6.13;;;;;;;;;;5068636;28;20036;-61
2021/12/20 06:32:29;;;;;;;14.23;7.00;;;;;;;;;;5034117;28;20063;-62
2021/12/20 06:34:55;;;;;;;15.10;6.63;;;;;;;;;;5068833;28;20471;-61
2021/12/20 06:37:21;;;;;;;11.40;5.60;;;;;;;;;;5070479;28;20128;-60
2021/12/20 06:39:46;;;;;;;17.13;7.22;;;;;;;;;;5070728;28;20039;-62
2021/12/20 06:42:12;;;;;;;16.13;7.47;;;;;;;;;;5070797;28;20047;-60
2021/12/20 06:44:37;;;;;;;11.88;6.55;;;;;;;;;;5070315;28;20159;-60
2021/12/20 06:47:03;;;;;;;20.02;7.53;;;;;;;;;;5033146;28;20186;-62
2021/12/20 06:49:28;;;;;;;13.88;7.72;;;;;;;;;;5070267;28;20122;-63
2021/12/20 06:51:58;;;;;;;15.77;7.60;;;;;;;;;;5069794;28;20086;-64
2021/12/20 06:54:24;;;;;;;18.40;7.75;;;;;;;;;;5052387;28;20036;-63
2021/12/20 06:56:49;;;;;;;13.18;7.75;;;;;;;;;;5068945;28;20032;-62
2021/12/20 06:59:15;;;;;;;14.63;7.65;;;;;;;;;;5068853;28;20041;-61
2021/12/20 07:01:41;;;;;;;12.98;6.75;;;;;;;;;;5069628;28;20160;-61
2021/12/20 07:04:07;;;;;;;13.63;7.78;;;;;;;;;;5068079;28;20029;-61
2021/12/20 07:06:32;;;;;;;13.45;7.20;;;;;;;;;;5069317;28;20032;-65
2021/12/20 07:08:58;;;;;;;15.85;8.30;;;;;;;;;;5066844;28;20617;-66
2021/12/20 07:11:23;;;;;;;17.38;8.98;;;;;;;;;;5069948;28;20028;-62
2021/12/20 07:13:49;;;;;;;13.38;8.43;;;;;;;;;;5068591;28;20020;-63
2021/12/20 07:16:15;;;;;;;15.38;8.52;;;;;;;;;;5069389;28;20036;-62
2021/12/20 07:18:41;;;;;;;21.17;7.53;;;;;;;;;;5069758;28;20058;-62
2021/12/20 07:21:06;;;;;;;22.42;8.43;;;;;;;;;;5069970;28;20129;-64
2021/12/20 07:23:34;;;;;;;20.05;8.90;;;;;;;;;;5069503;28;20119;-62
2021/12/20 07:25:59;;;;;;;26.10;8.13;;;;;;;;;;5068174;28;20032;-62
2021/12/20 07:28:25;;;;;;;18.00;7.82;;;;;;;;;;5069386;28;20119;-62
2021/12/20 07:30:50;;;;;;;21.38;7.88;;;;;;;;;;5069704;28;20039;-62
2021/12/20 07:33:16;;;;;;;19.10;8.55;;;;;;;;;;5069566;28;20401;-62
2021/12/20 07:35:42;;;;;;;17.70;7.78;;;;;;;;;;5072682;28;20024;-62
2021/12/20 07:38:11;;;;;;;20.98;7.97;;;;;;;;;;5067828;28;20028;-62
2021/12/20 07:40:37;;;;;;;18.88;7.88;;;;;;;;;;5067861;28;20044;-62
2021/12/20 07:43:03;;;;;;;14.35;7.63;;;;;;;;;;5068394;28;20042;-63
2021/12/20 07:45:28;;;;;;;24.00;9.65;;;;;;;;;;5068656;28;20150;-62
2021/12/20 07:47:54;;;;;;;18.95;9.00;;;;;;;;;;5068982;28;20016;-62
2021/12/20 07:50:19;;;;;;;22.33;9.10;;;;;;;;;;5051561;28;20033;-62
2021/12/20 07:52:46;;;;;;;28.10;8.75;;;;;;;;;;5069077;28;20391;-61
2021/12/20 07:55:12;;;;;;;17.02;8.10;;;;;;;;;;5069063;28;20059;-62
2021/12/20 07:57:37;;;;;;;12.52;6.53;;;;;;;;;;5069040;28;20024;-61
2021/12/20 08:00:06;;;;;;;14.60;6.78;;;;;;;;;;5069020;28;20490;-61
2021/12/20 08:02:38;;;;;;;15.95;7.43;;;;;;;;;;5067991;28;20042;-61
2021/12/20 08:05:04;;;;;;;18.10;7.63;;;;;;;;;;5069019;28;20037;-62
2021/12/20 08:07:29;;;;;;;13.73;7.22;;;;;;;;;;5068717;28;20476;-63
2021/12/20 08:09:54;;;;;;;15.05;8.48;;;;;;;;;;5068671;28;20039;-61
2021/12/20 08:12:20;;;;;;;12.90;6.60;;;;;;;;;;5068615;28;20040;-60
2021/12/20 08:14:45;;;;;;;17.73;6.35;;;;;;;;;;5068560;28;20042;-63
2021/12/20 08:17:11;;;;;;;13.68;5.85;;;;;;;;;;5068920;28;20349;-60
2021/12/20 08:19:36;;;;;;;11.52;6.57;;;;;;;;;;5068605;28;20041;-62
2021/12/20 08:22:02;;;;;;;13.73;6.75;;;;;;;;;;5068766;28;20028;-62
2021/12/20 08:24:28;;;;;;;9.77;6.47;;;;;;;;;;5057319;28;20028;-60
2021/12/20 08:26:53;;;;;;;12.18;6.47;;;;;;;;;;5048074;28;20044;-61
2021/12/20 08:29:19;;;;;;;12.32;6.43;;;;;;;;;;5029912;28;20067;-61
2021/12/20 08:31:44;;;;;;;11.65;5.82;;;;;;;;;;5031142;28;20040;-69
2021/12/20 08:34:10;;;;;;;14.02;7.57;;;;;;;;;;5049001;28;20029;-61
2021/12/20 08:36:36;;;;;;;14.55;7.88;;;;;;;;;;5048375;28;20029;-66
2021/12/20 08:39:02;;;;;;;16.05;7.25;;;;;;;;;;5030141;28;20396;-61
2021/12/20 08:41:27;;;;;;;12.38;6.72;;;;;;;;;;5048016;28;20032;-62
2021/12/20 08:43:53;;;;;;;19.60;7.05;;;;;;;;;;5048326;28;20029;-62
2021/12/20 08:46:18;;;;;;;21.88;7.45;;;;;;;;;;5046740;28;20090;-62
2021/12/20 08:48:44;;;;;;;14.77;7.10;;;;;;;;;;5046813;28;20140;-66
2021/12/20 08:51:10;;;;;;;13.27;6.85;;;;;;;;;;5047937;28;20067;-61
2021/12/20 08:53:36;;;;;;;9.45;5.70;;;;;;;;;;5048383;28;20032;-61
2021/12/20 08:56:01;;;;;;;19.30;6.88;;;;;;;;;;5048680;28;20036;-61
2021/12/20 08:58:27;;;;;;;14.38;6.60;;;;;;;;;;5048735;28;20103;-59
2021/12/20 09:00:54;;;;;;;15.88;6.88;;;;;;;;;;5048314;28;20037;-60
2021/12/20 09:03:19;;;;;;;15.55;6.68;;;;;;;;;;5048988;28;20041;-61
2021/12/20 09:05:44;;;;;;;11.02;5.60;;;;;;;;;;5048470;28;20025;-60
2021/12/20 09:08:11;;;;;;;7.35;4.65;;;;;;;;;;5048436;28;20036;-61
2021/12/20 09:10:36;;;;;;;13.93;5.45;;;;;;;;;;5048405;28;20032;-60
2021/12/20 09:13:02;;;;;;;8.25;5.25;;;;;;;;;;5030182;28;20552;-60
2021/12/20 09:15:28;;;;;;;11.52;7.53;;;;;;;;;;5048390;28;20037;-61
2021/12/20 09:17:53;;;;;;;11.02;5.55;;;;;;;;;;5048221;28;20071;-60
2021/12/20 09:20:21;;;;;;;9.00;5.00;;;;;;;;;;5048337;28;20033;-59
2021/12/20 09:22:51;;;;;;;9.30;5.18;;;;;;;;;;5048225;28;20090;-60
2021/12/20 09:25:18;;;;;;;9.75;5.35;;;;;;;;;;5048319;28;20041;-60
2021/12/20 09:27:44;;;;;;;9.77;5.38;;;;;;;;;;5048027;28;20028;-60
2021/12/20 09:30:10;;;;;;;8.52;4.47;;;;;;;;;;5057699;28;20033;-61
2021/12/20 09:32:35;;;;;;;9.88;5.10;;;;;;;;;;5067514;28;20028;-61
2021/12/20 09:35:00;;;;;;;7.30;4.60;;;;;;;;;;5068025;28;20076;-60
2021/12/20 09:37:26;;;;;;;11.52;4.57;;;;;;;;;;5068048;28;20048;-60
2021/12/20 09:39:54;;;;;;;8.88;5.40;;;;;;;;;;5067792;28;20373;-59
2021/12/20 09:42:21;;;;;;;9.02;4.60;;;;;;;;;;5067749;28;20044;-60
2021/12/20 09:44:46;;;;;;;7.15;4.20;;;;;;;;;;5067816;28;20037;-60
2021/12/20 09:47:12;;;;;;;12.07;4.03;;;;;;;;;;5068122;28;20036;-59
2021/12/20 09:49:37;;;;;;;10.98;5.10;;;;;;;;;;5067887;28;20029;-59
2021/12/20 09:52:04;;;;;;;7.93;4.38;;;;;;;;;;5070190;28;20058;-60
2021/12/20 09:54:30;;;;;;;8.77;4.13;;;;;;;;;;5071607;28;20040;-59
2021/12/20 09:56:57;;;;;;;8.93;4.63;;;;;;;;;;5071050;28;20039;-62
2021/12/20 09:59:24;;;;;;;8.13;4.45;;;;;;;;;;5071616;28;20052;-60
2021/12/20 10:01:51;;;;;;;8.55;4.78;;;;;;;;;;5071169;28;20032;-61
2021/12/20 10:04:16;;;;;;;10.45;4.57;;;;;;;;;;5071348;28;20151;-59
2021/12/20 10:06:42;;;;;;;7.00;3.88;;;;;;;;;;5071254;28;20137;-61
2021/12/20 10:09:12;;;;;;;7.70;4.07;;;;;;;;;;5071110;28;20051;-60
2021/12/20 10:11:38;;;;;;;;;;;;;;;;;;5071439;28;20021;-60
2021/12/20 10:14:13;;;;;;;9.10;3.53;;;;;;;;;;5068245;28;19987;-60
2021/12/20 10:16:39;;;;;;;10.45;3.95;;;;;;;;;;5066703;28;20032;-60
2021/12/20 10:19:09;;;;;;;8.27;3.83;;;;;;;;;;5067986;28;20033;-60
2021/12/20 10:21:36;;;;;;;6.03;3.75;;;;;;;;;;5067821;28;20598;-59
2021/12/20 10:24:02;;;;;;;7.47;3.58;;;;;;;;;;5070661;28;20040;-60
2021/12/20 10:26:28;;;;;;;7.68;4.18;;;;;;;;;;5070217;28;20059;-60
2021/12/20 10:28:53;;;;;;;7.85;4.00;;;;;;;;;;5070987;28;20491;-61
2021/12/20 10:31:20;;;;;;;13.18;4.00;;;;;;;;;;5068747;28;20037;-60
2021/12/20 10:33:59;;;;;;;8.05;3.80;;;;;;;;;;5066545;28;20120;-59
2021/12/20 10:36:25;;;;;;;6.70;3.50;;;;;;;;;;5066919;28;20157;-62
2021/12/20 10:38:56;;;;;;;6.30;3.70;;;;;;;;;;5067182;28;20353;-60
2021/12/20 10:41:34;;;;;;;6.72;3.53;;;;;;;;;;5067740;28;20048;-60
2021/12/20 10:44:02;;;;;;;8.82;3.80;;;;;;;;;;5067935;28;20030;-60
2021/12/20 10:46:32;;;;;;;7.05;3.92;;;;;;;;;;5068528;28;20028;-60
2021/12/20 10:48:58;;;;;;;7.28;3.53;;;;;;;;;;5068441;28;20040;-59
2021/12/20 10:51:25;;;;;;;6.65;3.45;;;;;;;;;;5065353;28;20032;-60
2021/12/20 10:54:01;;;;;;;8.10;3.70;;;;;;;;;;5067388;28;20040;-61
2021/12/20 10:56:28;;;;;;;5.28;3.15;;;;;;;;;;5070207;28;20037;-61
2021/12/20 10:58:54;;;;;;;7.90;3.20;;;;;;;;;;5069981;28;20095;-59
2021/12/20 11:04:03;;;;;;;12.65;3.80;;;;;;;;;;5069122;28;20037;-62
2021/12/20 11:09:18;;;;;;;9.15;3.30;;;;;;;;;;5070070;28;20040;-62
2021/12/20 11:11:45;;;;;;;7.55;3.75;;;;;;;;;;5069927;28;20166;-62
2021/12/20 11:14:11;;;;;;;7.97;3.55;;;;;;;;;;5069602;28;20025;-61
2021/12/20 11:16:39;;;;;;;7.22;3.17;;;;;;;;;;5069502;28;20078;-62
2021/12/20 11:19:13;;;;;;;9.07;3.60;;;;;;;;;;5069709;28;20029;-62
2021/12/20 11:21:45;;;;;;;8.10;3.97;;;;;;;;;;5070028;28;20040;-62
2021/12/20 11:24:13;;;;;;;6.38;3.60;;;;;;;;;;5069281;28;20074;-61
2021/12/20 11:26:39;;;;;;;5.53;2.97;;;;;;;;;;5069421;28;20480;-62
2021/12/20 11:29:04;;;;;;;6.00;3.25;;;;;;;;;;5069634;28;20040;-62
2021/12/20 11:31:30;;;;;;;7.43;3.20;;;;;;;;;;5069697;28;20444;-61
2021/12/20 11:33:55;;;;;;;6.50;3.63;;;;;;;;;;5069583;28;20036;-60
2021/12/20 11:36:21;;;;;;;6.72;3.28;;;;;;;;;;5069484;28;20526;-61
2021/12/20 11:38:46;;;;;;;10.43;3.15;;;;;;;;;;5069447;28;20351;-61
2021/12/20 11:41:12;;;;;;;8.32;3.63;;;;;;;;;;5069416;28;20063;-61
2021/12/20 11:43:38;;;;;;;6.60;3.80;;;;;;;;;;5069019;28;20036;-60
2021/12/20 11:46:05;;;;;;;7.20;3.60;;;;;;;;;;5069643;28;20039;-61
2021/12/20 11:48:31;;;;;;;6.78;3.58;;;;;;;;;;5069513;28;20032;-61
2021/12/20 11:50:57;;;;;;;6.97;3.15;;;;;;;;;;5068864;28;20032;-61
2021/12/20 11:53:23;;;;;;;5.43;3.08;;;;;;;;;;5068941;28;20476;-62
2021/12/20 11:55:53;;;;;;;9.05;3.50;;;;;;;;;;5069059;28;20059;-61
2021/12/20 11:58:20;;;;;;;7.45;2.92;;;;;;;;;;5068979;28;20036;-61
2021/12/20 12:00:50;;;;;;;6.03;3.33;;;;;;;;;;5069169;28;20054;-61
2021/12/20 12:03:15;;;;;;;10.15;2.83;;;;;;;;;;5051594;28;20060;-61
2021/12/20 12:05:49;;;;;;;7.93;3.15;;;;;;;;;;5068819;28;20064;-61
2021/12/20 12:08:23;;;;;;;7.03;2.65;;;;;;;;;;5069191;28;20036;-61
2021/12/20 12:10:49;;;;;;;7.78;2.72;;;;;;;;;;5067362;28;20040;-61
2021/12/20 12:13:16;;;;;;;8.95;2.60;;;;;;;;;;5069049;28;20368;-61
2021/12/20 12:16:03;;;;;;;6.22;2.33;;;;;;;;;;5067436;28;20476;-61
2021/12/20 12:18:46;;;;;;;6.90;2.33;;;;;;;;;;5068960;28;20036;-61
2021/12/20 12:21:30;;;;;;;7.57;2.42;;;;;;;;;;5069163;28;20107;-61
2021/12/20 12:23:56;;;;;;;6.40;2.50;;;;;;;;;;5069207;28;20048;-61
2021/12/20 12:26:30;;;;;;;7.82;2.88;;;;;;;;;;5068490;28;20024;-61
2021/12/20 12:28:56;;;;;;;7.30;2.50;;;;;;;;;;5050983;28;20060;-60
2021/12/20 12:31:22;;;;;;;8.65;3.17;;;;;;;;;;5068429;28;20060;-61
2021/12/20 12:34:04;;;;;;;7.80;2.90;;;;;;;;;;5069080;28;20115;-60
2021/12/20 12:36:37;;;;;;;7.68;3.08;;;;;;;;;;5068387;28;20043;-61
2021/12/20 12:39:08;;;;;;;13.05;3.63;;;;;;;;;;5067920;28;20851;-60
2021/12/20 12:41:42;;;;;;;7.63;2.92;;;;;;;;;;5069057;28;20504;-60
2021/12/20 12:44:18;;;;;;;11.63;3.20;;;;;;;;;;5068700;28;20051;-60
2021/12/20 12:46:45;;;;;;;7.25;2.92;;;;;;;;;;5068417;28;20055;-60
2021/12/20 12:49:23;;;;;;;6.40;3.15;;;;;;;;;;5068827;28;20435;-60
2021/12/20 12:51:49;;;;;;;8.13;3.28;;;;;;;;;;5068594;28;20036;-59
2021/12/20 12:54:32;;;;;;;11.20;3.20;;;;;;;;;;5068623;28;20036;-60
2021/12/20 12:57:10;;;;;;;6.50;3.45;;;;;;;;;;5068384;28;20043;-60
2021/12/20 12:59:48;;;;;;;9.82;3.22;;;;;;;;;;5068760;28;20388;-60
2021/12/20 13:02:15;;;;;;;6.70;3.13;;;;;;;;;;5068643;28;20028;-60
2021/12/20 13:04:45;;;;;;;5.72;2.90;;;;;;;;;;5068392;28;20050;-60
2021/12/20 13:07:11;;;;;;;9.55;2.88;;;;;;;;;;5068299;28;20036;-60
2021/12/20 13:09:43;;;;;;;7.20;3.33;;;;;;;;;;5068493;28;20043;-59
2021/12/20 13:12:16;;;;;;;10.05;3.03;;;;;;;;;;5068804;28;20040;-59
2021/12/20 13:15:03;;;;;;;9.05;2.83;;;;;;;;;;5068345;28;20028;-61
2021/12/20 13:17:34;;;;;;;9.63;2.53;;;;;;;;;;5068194;28;20071;-60
2021/12/20 13:20:18;;;;;;;7.95;2.10;;;;;;;;;;5050649;28;20075;-60
2021/12/20 13:23:02;;;;;;;7.82;2.70;;;;;;;;;;5068453;28;20035;-60
2021/12/20 13:25:51;;;;;;;10.63;2.92;;;;;;;;;;5068184;28;20120;-60
2021/12/20 13:28:19;;;;;;;6.05;2.88;;;;;;;;;;5061007;28;20041;-60
2021/12/20 13:30:54;;;;;;;6.82;2.80;;;;;;;;;;5068494;28;20047;-61
2021/12/20 13:33:21;;;;;;;10.02;2.45;;;;;;;;;;5071466;28;20037;-62
2021/12/20 13:35:49;;;;;;;8.18;2.97;;;;;;;;;;5070562;28;20036;-62
2021/12/20 13:38:20;;;;;;;8.02;2.80;;;;;;;;;;5071596;28;20037;-61
2021/12/20 13:40:46;;;;;;;7.47;2.95;;;;;;;;;;5070830;28;20032;-62
2021/12/20 13:43:11;;;;;;;9.90;3.40;;;;;;;;;;5071245;28;20052;-62
2021/12/20 13:45:37;;;;;;;9.73;3.25;;;;;;;;;;5071366;28;20056;-61
2021/12/20 13:48:07;;;;;;;10.93;3.33;;;;;;;;;;5071168;28;20135;-61
2021/12/20 13:50:33;;;;;;;6.10;3.17;;;;;;;;;;5070169;28;20056;-61
2021/12/20 13:52:58;;;;;;;10.82;3.80;;;;;;;;;;5070746;28;20437;-60
2021/12/20 13:55:23;;;;;;;9.35;3.90;;;;;;;;;;5070799;28;20028;-61
2021/12/20 13:57:49;;;;;;;9.57;3.92;;;;;;;;;;5071163;28;20120;-61
2021/12/20 14:00:15;;;;;;;12.38;4.25;;;;;;;;;;5071200;28;20048;-60
2021/12/20 14:02:46;;;;;;;9.35;4.28;;;;;;;;;;5067625;28;20483;-61
2021/12/20 14:05:18;;;;;;;11.45;4.43;;;;;;;;;;5071026;28;20491;-60
2021/12/20 14:07:47;;;;;;;12.55;5.00;;;;;;;;;;5071436;28;20068;-60
2021/12/20 14:10:14;;;;;;;12.68;4.05;;;;;;;;;;5069885;28;20075;-60
2021/12/20 14:12:41;;;;;;;11.63;5.43;;;;;;;;;;5070749;28;20034;-61
2021/12/20 14:15:07;;;;;;;11.10;5.10;;;;;;;;;;5071281;28;20039;-60
2021/12/20 14:17:51;;;;;;;9.40;3.90;;;;;;;;;;5071020;28;20028;-59
2021/12/20 14:20:17;;;;;;;10.68;3.92;;;;;;;;;;5071125;28;20041;-60
2021/12/20 14:22:51;;;;;;;10.18;3.28;;;;;;;;;;5070495;28;20403;-60
2021/12/20 14:25:16;;;;;;;7.50;3.25;;;;;;;;;;5071302;28;20075;-60
2021/12/20 14:27:42;;;;;;;8.00;2.35;;;;;;;;;;5069186;28;20259;-60
2021/12/20 14:30:23;;;;;;;8.13;3.13;;;;;;;;;;5071208;28;20029;-59
2021/12/20 14:32:48;;;;;;;9.15;3.05;;;;;;;;;;5070515;28;20396;-61
2021/12/20 14:35:23;;;;;;;9.43;2.90;;;;;;;;;;5070654;28;20033;-60
2021/12/20 14:37:48;;;;;;;10.32;3.65;;;;;;;;;;5069817;28;20131;-61
2021/12/20 14:40:34;;;;;;;6.82;2.90;;;;;;;;;;5070823;28;20551;-60
2021/12/20 14:43:13;;;;;;;10.43;3.13;;;;;;;;;;5070411;28;20044;-60
2021/12/20 14:45:39;;;;;;;7.60;3.58;;;;;;;;;;5070628;28;20040;-60
2021/12/20 14:48:28;;;;;;;8.73;3.60;;;;;;;;;;5070474;28;20476;-60
2021/12/20 14:50:55;;;;;;;7.45;3.17;;;;;;;;;;5070529;28;20071;-60